KELK/ELK METAR and TAF weather

Enter ICAO airport designator
Station Type Date Time Source
KELK METAR 2022/11/30 10:55 UTC NOAA

KELK 301055Z AUTO 30004KT 10SM CLR M06/M08 A3032 RMK AO2 SLP546 T10631078 $


Station Type Date Time Source
KELK Decoded METAR 2022/11/30 10:55 UTC NOAA

Station name not available
Nov 30, 2022 - 05:55 AM EST / 2022.11.30 1055 UTC
Wind: from the WNW (300 degrees) at 5 MPH (4 KT):0
Visibility: 10 mile(s):0
Sky conditions: clear
Temperature: 20.7 F (-6.3 C)
Windchill: 14 F (-10 C):1
Dew Point: 18.0 F (-7.8 C)
Relative Humidity: 89%
Pressure (altimeter): 30.32 in. Hg (1026 hPa)
ob: KELK 301055Z AUTO 30004KT 10SM CLR M06/M08 A3032 RMK AO2 SLP546 T10631078
cycle: 11

Station Type Date Time Source
KELK TAF UTC NOAA

Error!

Example: see airport list